createdAt,value
2023-03-12T00:00:25.772Z,21.55
2023-03-12T00:02:30.663Z,18.90
2023-03-12T00:04:34.620Z,19.40
2023-03-12T00:06:37.987Z,19.08
2023-03-12T00:08:40.651Z,18.05
2023-03-12T00:10:43.205Z,15.40
2023-03-12T00:12:45.750Z,19.83
2023-03-12T00:14:48.324Z,16.15
2023-03-12T00:16:50.864Z,13.20
2023-03-12T00:18:56.566Z,19.25
2023-03-12T00:20:59.237Z,14.52
2023-03-12T00:23:02.030Z,15.45
2023-03-12T00:25:06.309Z,15.30
2023-03-12T00:27:08.864Z,17.10
2023-03-12T00:29:11.547Z,13.52
2023-03-12T00:31:17.245Z,12.75
2023-03-12T00:33:19.835Z,14.80
2023-03-12T00:35:23.775Z,18.50
2023-03-12T00:37:26.882Z,17.08
2023-03-12T00:39:29.479Z,19.00
2023-03-12T00:41:32.260Z,16.70
2023-03-12T00:43:34.782Z,16.95
2023-03-12T00:45:37.512Z,13.18
2023-03-12T00:47:40.066Z,17.10
2023-03-12T00:49:42.865Z,18.50
2023-03-12T00:51:46.825Z,17.40
2023-03-12T00:53:49.368Z,15.43
2023-03-12T00:55:52.000Z,17.02
2023-03-12T00:57:54.560Z,13.77
2023-03-12T00:59:57.136Z,20.35
2023-03-12T01:01:59.718Z,13.73
2023-03-12T01:04:02.321Z,16.88
2023-03-12T01:06:05.554Z,19.25
2023-03-12T01:08:10.662Z,15.43
2023-03-12T01:10:16.576Z,17.90
2023-03-12T01:12:19.144Z,17.85
2023-03-12T01:14:21.767Z,18.25
2023-03-12T01:16:28.118Z,18.83
2023-03-12T01:18:30.787Z,20.30
2023-03-12T01:20:33.387Z,16.77
2023-03-12T01:22:36.663Z,14.63
2023-03-12T01:24:40.699Z,15.32
2023-03-12T01:26:43.285Z,19.88
2023-03-12T01:28:46.088Z,15.23
2023-03-12T01:30:48.781Z,20.58
2023-03-12T01:32:53.198Z,19.92
2023-03-12T01:34:55.792Z,16.88
2023-03-12T01:36:58.359Z,16.55
2023-03-12T01:39:01.057Z,16.42
2023-03-12T01:41:05.293Z,17.08
2023-03-12T01:43:28.264Z,16.65
2023-03-12T01:46:07.100Z,16.58
2023-03-12T01:48:11.125Z,18.02
2023-03-12T01:50:13.666Z,18.52
2023-03-12T01:52:20.920Z,20.02
2023-03-12T01:54:26.771Z,18.60
2023-03-12T01:56:35.678Z,13.32
2023-03-12T01:58:41.447Z,15.25
2023-03-12T02:00:44.208Z,15.10
2023-03-12T02:02:47.753Z,16.98
2023-03-12T02:04:53.730Z,15.02
2023-03-12T02:07:03.972Z,18.08
2023-03-12T02:09:08.703Z,15.60
2023-03-12T02:11:11.516Z,15.63
2023-03-12T02:13:15.586Z,18.48
2023-03-12T02:15:18.547Z,14.35
2023-03-12T02:17:21.390Z,13.07
2023-03-12T02:19:33.580Z,16.17
2023-03-12T02:21:37.521Z,14.57
2023-03-12T02:23:47.055Z,12.57
2023-03-12T02:25:53.337Z,19.02
2023-03-12T02:27:57.973Z,15.70
2023-03-12T02:30:01.366Z,13.70
2023-03-12T02:32:06.653Z,12.55
2023-03-12T02:34:09.577Z,12.45
2023-03-12T02:36:12.245Z,12.25
2023-03-12T02:38:40.947Z,15.02
2023-03-12T02:40:46.875Z,15.65
2023-03-12T02:42:53.059Z,15.10
2023-03-12T02:44:55.644Z,14.13
2023-03-12T02:47:00.797Z,13.23
2023-03-12T02:49:03.664Z,14.23
2023-03-12T02:51:06.657Z,18.40
2023-03-12T02:53:09.292Z,15.18
2023-03-12T02:55:12.018Z,14.35
2023-03-12T02:57:14.564Z,15.20
2023-03-12T02:59:20.706Z,14.15
2023-03-12T03:01:23.389Z,16.85
2023-03-12T03:03:25.987Z,16.38
2023-03-12T03:05:28.601Z,11.35
2023-03-12T03:07:31.156Z,15.85
2023-03-12T03:09:33.753Z,11.85
2023-03-12T03:11:39.123Z,14.48
2023-03-12T03:13:41.683Z,14.32
2023-03-12T03:15:45.593Z,14.95
2023-03-12T03:17:48.208Z,14.63
2023-03-12T03:19:51.206Z,13.98
2023-03-12T03:21:53.757Z,11.82
2023-03-12T03:23:56.383Z,13.60
2023-03-12T03:25:59.555Z,14.18
2023-03-12T03:28:02.128Z,17.90
2023-03-12T03:30:05.832Z,13.70
2023-03-12T03:32:09.809Z,10.23
2023-03-12T03:34:12.457Z,12.90
2023-03-12T03:36:15.264Z,12.40
2023-03-12T03:38:17.837Z,11.90
2023-03-12T03:40:20.695Z,12.00
2023-03-12T03:42:23.583Z,13.07
2023-03-12T03:44:26.410Z,16.95
2023-03-12T03:46:29.050Z,25.77
2023-03-12T03:48:33.431Z,14.00
2023-03-12T03:50:35.987Z,12.80
2023-03-12T03:52:38.671Z,12.75
2023-03-12T03:54:41.211Z,15.40
2023-03-12T03:56:43.759Z,12.35
2023-03-12T03:58:46.734Z,13.07
2023-03-12T04:00:49.308Z,14.73
2023-03-12T04:02:51.843Z,17.98
2023-03-12T04:05:00.812Z,21.55
2023-03-12T04:07:03.362Z,17.10
2023-03-12T04:09:06.070Z,12.57
2023-03-12T04:11:11.799Z,16.02
2023-03-12T04:13:14.326Z,15.10
2023-03-12T04:15:17.184Z,14.40
2023-03-12T04:17:20.021Z,11.82
2023-03-12T04:19:22.587Z,11.95
2023-03-12T04:21:26.458Z,14.68
2023-03-12T04:23:29.061Z,16.17
2023-03-12T04:25:31.860Z,11.40
2023-03-12T04:27:34.890Z,11.55
2023-03-12T04:29:39.152Z,13.75
2023-03-12T04:31:41.752Z,12.00
2023-03-12T04:33:44.343Z,12.27
2023-03-12T04:35:51.815Z,9.43
2023-03-12T04:37:55.738Z,10.90
2023-03-12T04:39:58.295Z,11.43
2023-03-12T04:42:01.041Z,16.05
2023-03-12T04:44:03.721Z,11.10
2023-03-12T04:46:07.255Z,14.90
2023-03-12T04:48:09.808Z,14.13
2023-03-12T04:50:13.200Z,12.32
2023-03-12T04:52:17.580Z,14.95
2023-03-12T04:54:22.386Z,16.67
2023-03-12T04:56:25.351Z,15.13
2023-03-12T04:58:28.208Z,17.63
2023-03-12T05:00:30.895Z,15.43
2023-03-12T05:02:33.464Z,19.40
2023-03-12T05:04:36.055Z,19.75
2023-03-12T05:06:38.598Z,17.05
2023-03-12T05:08:41.160Z,15.63
2023-03-12T05:10:46.074Z,16.77
2023-03-12T05:12:48.610Z,12.98
2023-03-12T05:14:51.361Z,15.02
2023-03-12T05:16:54.342Z,15.10
2023-03-12T05:18:56.901Z,13.43
2023-03-12T05:21:01.006Z,14.35
2023-03-12T05:23:03.541Z,10.88
2023-03-12T05:25:06.930Z,16.15
2023-03-12T05:27:11.590Z,14.00
2023-03-12T05:29:14.141Z,15.05
2023-03-12T05:31:17.710Z,16.63
2023-03-12T05:33:20.263Z,12.98
2023-03-12T05:35:22.813Z,20.35
2023-03-12T05:37:25.458Z,14.80
2023-03-12T05:39:28.152Z,11.63
2023-03-12T05:41:31.201Z,16.10
2023-03-12T05:43:35.307Z,15.65
2023-03-12T05:45:37.858Z,16.55
2023-03-12T05:47:40.400Z,16.50
2023-03-12T05:49:44.166Z,15.00
2023-03-12T05:51:47.688Z,17.98
2023-03-12T05:53:50.362Z,15.88
2023-03-12T05:55:52.896Z,11.88
2023-03-12T05:57:55.551Z,13.60
2023-03-12T05:59:59.491Z,18.77
2023-03-12T06:02:02.090Z,15.40
2023-03-12T06:04:05.042Z,15.82
2023-03-12T06:06:07.679Z,15.90
2023-03-12T06:08:10.236Z,13.00
2023-03-12T06:10:12.968Z,12.70
2023-03-12T06:12:15.586Z,12.95
2023-03-12T06:14:18.273Z,14.73
2023-03-12T06:16:24.254Z,14.40
2023-03-12T06:18:26.853Z,15.20
2023-03-12T06:20:29.469Z,17.08
2023-03-12T06:22:32.029Z,15.02
2023-03-12T06:24:34.620Z,16.83
2023-03-12T06:26:37.237Z,13.77
2023-03-12T06:28:40.828Z,11.23
2023-03-12T06:30:43.372Z,12.20
2023-03-12T06:32:47.330Z,16.05
2023-03-12T06:34:51.002Z,15.13
2023-03-12T06:36:53.579Z,14.52
2023-03-12T06:38:57.310Z,12.45
2023-03-12T06:41:02.586Z,14.65
2023-03-12T06:43:05.101Z,14.63
2023-03-12T06:45:08.778Z,13.57
2023-03-12T06:47:11.311Z,12.07
2023-03-12T06:49:15.295Z,14.65
2023-03-12T06:51:18.815Z,10.23
2023-03-12T06:53:22.195Z,11.10
2023-03-12T06:55:24.733Z,11.10
2023-03-12T06:57:27.264Z,17.23
2023-03-12T06:59:29.841Z,14.50
2023-03-12T07:01:32.454Z,15.63
2023-03-12T07:03:35.268Z,14.18
2023-03-12T07:05:39.174Z,13.35
2023-03-12T07:07:41.962Z,14.50
2023-03-12T07:09:44.511Z,15.98
2023-03-12T07:11:47.104Z,16.42
2023-03-12T07:13:49.657Z,13.35
2023-03-12T07:15:52.251Z,16.73
2023-03-12T07:17:54.828Z,14.10
2023-03-12T07:19:57.364Z,13.23
2023-03-12T07:22:01.412Z,11.05
2023-03-12T07:24:06.841Z,19.20
2023-03-12T07:26:09.408Z,15.55
2023-03-12T07:28:13.629Z,14.95
2023-03-12T07:30:16.526Z,13.68
2023-03-12T07:32:19.155Z,15.50
2023-03-12T07:34:21.872Z,13.50
2023-03-12T07:36:24.571Z,16.08
2023-03-12T07:38:28.753Z,15.90
2023-03-12T07:40:31.529Z,14.48
2023-03-12T07:42:34.142Z,16.17
2023-03-12T07:44:37.628Z,15.93
2023-03-12T07:46:40.514Z,15.45
2023-03-12T07:48:44.405Z,14.82
2023-03-12T07:50:47.308Z,12.18
2023-03-12T07:52:49.951Z,12.30
2023-03-12T07:54:56.320Z,16.63
2023-03-12T07:56:59.018Z,12.85
2023-03-12T07:59:01.883Z,14.30
2023-03-12T08:01:04.896Z,17.73
2023-03-12T08:03:07.741Z,11.63
2023-03-12T08:05:10.957Z,14.77
2023-03-12T08:07:13.771Z,13.95
2023-03-12T08:09:16.456Z,17.75
2023-03-12T08:11:20.347Z,15.88
2023-03-12T08:13:24.401Z,13.05
2023-03-12T08:15:27.015Z,13.85
2023-03-12T08:17:29.581Z,14.45
2023-03-12T08:19:32.121Z,17.35
2023-03-12T08:21:34.635Z,11.77
2023-03-12T08:23:37.286Z,14.75
2023-03-12T08:25:39.868Z,13.50
2023-03-12T08:27:43.739Z,17.30
2023-03-12T08:29:46.321Z,18.20
2023-03-12T08:32:03.828Z,14.25
2023-03-12T08:34:07.444Z,13.55
2023-03-12T08:36:10.718Z,15.02
2023-03-12T08:38:13.372Z,14.05
2023-03-12T08:40:15.933Z,18.38
2023-03-12T08:42:18.483Z,17.33
2023-03-12T08:44:22.387Z,16.83
2023-03-12T08:46:24.958Z,13.90
2023-03-12T08:48:28.232Z,17.98
2023-03-12T08:50:32.054Z,21.13
2023-03-12T08:52:34.593Z,14.52
2023-03-12T08:54:37.150Z,18.08
2023-03-12T08:56:42.426Z,14.15
2023-03-12T08:58:45.039Z,14.25
2023-03-12T09:00:48.893Z,9.88
2023-03-12T09:02:52.407Z,14.20
2023-03-12T09:04:55.020Z,14.10
2023-03-12T09:06:57.600Z,11.52
2023-03-12T09:09:04.840Z,14.40
2023-03-12T09:11:09.112Z,15.23
2023-03-12T09:13:11.663Z,13.20
2023-03-12T09:15:14.228Z,12.52
2023-03-12T09:17:18.138Z,13.48
2023-03-12T09:19:21.055Z,13.43
2023-03-12T09:21:23.624Z,13.07
2023-03-12T09:23:27.075Z,14.43
2023-03-12T09:25:29.582Z,18.48
2023-03-12T09:27:32.135Z,13.18
2023-03-12T09:29:34.813Z,10.25
2023-03-12T09:31:37.406Z,17.77
2023-03-12T09:33:41.390Z,15.75
2023-03-12T09:35:44.000Z,15.85
2023-03-12T09:37:49.443Z,12.48
2023-03-12T09:39:52.630Z,12.50
2023-03-12T09:41:55.221Z,16.05
2023-03-12T09:44:01.213Z,15.90
2023-03-12T09:46:05.206Z,15.65
2023-03-12T09:48:14.176Z,16.77
2023-03-12T09:50:23.679Z,12.35
2023-03-12T09:52:31.972Z,17.27
2023-03-12T09:54:39.370Z,14.15
2023-03-12T09:56:42.288Z,13.15
2023-03-12T09:58:48.134Z,17.50
2023-03-12T10:00:52.304Z,14.45
2023-03-12T10:03:09.652Z,12.45
2023-03-12T10:05:19.357Z,11.65
2023-03-12T10:07:30.921Z,9.40
2023-03-12T10:09:50.249Z,11.85
2023-03-12T10:12:00.567Z,9.82
2023-03-12T10:14:18.046Z,12.73
2023-03-12T10:16:39.675Z,11.25
2023-03-12T10:18:58.313Z,11.70
2023-03-12T10:21:18.692Z,8.30
2023-03-12T10:23:35.699Z,7.90
2023-03-12T10:25:47.419Z,13.23
2023-03-12T10:27:51.153Z,8.60
2023-03-12T10:29:54.856Z,4.13
2023-03-12T10:32:01.726Z,5.13
2023-03-12T10:34:16.400Z,7.72
2023-03-12T10:36:21.650Z,5.18
2023-03-12T10:38:30.558Z,5.38
2023-03-12T10:40:35.509Z,8.35
2023-03-12T10:42:38.043Z,9.05
2023-03-12T10:44:40.932Z,8.18
2023-03-12T10:46:55.081Z,7.00
2023-03-12T10:49:29.413Z,5.85
2023-03-12T10:51:31.991Z,8.15
2023-03-12T10:53:37.121Z,9.13
2023-03-12T10:55:40.746Z,5.55
2023-03-12T10:57:43.681Z,7.15
2023-03-12T10:59:48.529Z,5.75
2023-03-12T11:01:53.663Z,7.50
2023-03-12T11:04:15.982Z,10.48
2023-03-12T11:06:23.575Z,7.95
2023-03-12T11:08:29.264Z,5.55
2023-03-12T11:10:46.135Z,9.68
2023-03-12T11:12:58.191Z,9.48
2023-03-12T11:15:00.882Z,8.90
2023-03-12T11:17:21.340Z,10.02
2023-03-12T11:19:30.148Z,4.57
2023-03-12T11:21:36.930Z,6.93
2023-03-12T11:23:43.099Z,8.95
2023-03-12T11:25:54.162Z,11.77
2023-03-12T11:28:00.295Z,12.57
2023-03-12T11:30:05.812Z,9.10
2023-03-12T11:32:18.086Z,11.35
2023-03-12T11:34:24.470Z,9.18
2023-03-12T11:36:38.278Z,8.57
2023-03-12T11:38:44.428Z,12.60
2023-03-12T11:41:00.145Z,12.65
2023-03-12T11:43:43.130Z,4.53
2023-03-12T11:45:59.573Z,7.55
2023-03-12T11:48:18.797Z,7.88
2023-03-12T11:50:29.337Z,9.02
2023-03-12T11:52:40.309Z,8.32
2023-03-12T11:55:08.675Z,9.77
2023-03-12T11:57:18.824Z,10.48
2023-03-12T11:59:35.497Z,6.40
2023-03-12T12:01:51.754Z,4.78
2023-03-12T12:04:22.059Z,9.30
2023-03-12T12:06:31.658Z,6.80
2023-03-12T12:08:46.144Z,5.07
2023-03-12T12:11:01.352Z,6.15
2023-03-12T12:13:12.065Z,4.93
2023-03-12T12:15:24.887Z,9.13
2023-03-12T12:17:39.801Z,9.23
2023-03-12T12:19:58.345Z,8.90
2023-03-12T12:22:11.844Z,8.93
2023-03-12T12:24:27.937Z,8.63
2023-03-12T12:26:39.794Z,8.15
2023-03-12T12:31:21.208Z,7.68
2023-03-12T12:33:37.891Z,7.55
2023-03-12T12:35:43.018Z,8.93
2023-03-12T12:37:51.435Z,6.45
2023-03-12T12:40:01.032Z,7.70
2023-03-12T12:42:07.019Z,7.50
2023-03-12T12:44:15.795Z,5.70
2023-03-12T12:46:22.010Z,5.82
2023-03-12T12:48:28.473Z,6.40
2023-03-12T12:50:35.902Z,10.63
2023-03-12T12:52:38.581Z,11.95
2023-03-12T12:54:52.016Z,9.00
2023-03-12T12:57:02.852Z,7.18
2023-03-12T12:59:26.037Z,5.95
2023-03-12T13:01:28.715Z,10.20
2023-03-12T13:03:33.060Z,5.93
2023-03-12T13:05:47.665Z,5.70
2023-03-12T13:07:50.192Z,5.68
2023-03-12T13:09:54.534Z,8.20
2023-03-12T13:11:58.033Z,7.80
2023-03-12T13:14:23.635Z,10.05
2023-03-12T13:16:33.679Z,11.13
2023-03-12T13:18:38.845Z,12.98
2023-03-12T13:20:48.895Z,7.60
2023-03-12T13:23:01.942Z,9.45
2023-03-12T13:25:21.989Z,6.82
2023-03-12T13:27:26.758Z,9.18
2023-03-12T13:29:41.974Z,7.32
2023-03-12T13:31:44.764Z,7.43
2023-03-12T13:33:50.519Z,5.18
2023-03-12T13:36:12.900Z,6.45
2023-03-12T13:38:35.137Z,8.45
2023-03-12T13:41:04.002Z,6.30
2023-03-12T13:43:13.295Z,3.30
2023-03-12T13:45:30.446Z,5.65
2023-03-12T13:47:38.914Z,6.35
2023-03-12T13:49:44.980Z,8.68
2023-03-12T13:51:56.342Z,5.75
2023-03-12T13:54:02.311Z,8.25
2023-03-12T13:56:08.840Z,4.90
2023-03-12T13:58:21.391Z,6.32
2023-03-12T14:00:30.052Z,5.15
2023-03-12T14:02:37.596Z,3.30
2023-03-12T14:04:42.778Z,7.03
2023-03-12T14:06:59.238Z,10.27
2023-03-12T14:09:15.169Z,8.00
2023-03-12T14:11:25.021Z,4.60
2023-03-12T14:13:55.191Z,6.53
2023-03-12T14:16:07.139Z,9.35
2023-03-12T14:18:16.803Z,8.43
2023-03-12T14:20:23.076Z,8.40
2023-03-12T14:22:26.556Z,7.30
2023-03-12T14:24:33.385Z,5.53
2023-03-12T14:26:37.635Z,5.95
2023-03-12T14:28:42.956Z,8.45
2023-03-12T14:30:53.319Z,7.15
2023-03-12T14:33:01.472Z,6.93
2023-03-12T14:35:18.035Z,8.35
2023-03-12T14:37:25.066Z,8.95
2023-03-12T14:39:32.896Z,7.75
2023-03-12T14:41:40.749Z,6.03
2023-03-12T14:43:46.298Z,5.93
2023-03-12T14:45:51.844Z,7.47
2023-03-12T14:47:56.353Z,5.30
2023-03-12T14:50:00.265Z,10.43
2023-03-12T14:52:02.950Z,7.93
2023-03-12T14:54:05.731Z,7.28
2023-03-12T14:56:13.554Z,7.35
2023-03-12T14:58:19.938Z,6.20
2023-03-12T15:00:24.690Z,5.00
2023-03-12T15:02:28.632Z,11.88
2023-03-12T15:04:34.368Z,9.75
2023-03-12T15:06:43.889Z,9.50
2023-03-12T15:08:46.975Z,10.32
2023-03-12T15:10:51.028Z,5.97
2023-03-12T15:12:57.443Z,10.75
2023-03-12T15:15:04.789Z,8.23
2023-03-12T15:17:08.608Z,6.03
2023-03-12T15:19:13.989Z,7.45
2023-03-12T15:21:17.700Z,5.95
2023-03-12T15:23:24.182Z,8.30
2023-03-12T15:25:29.023Z,7.80
2023-03-12T15:27:34.165Z,8.90
2023-03-12T15:29:42.481Z,11.93
2023-03-12T15:31:47.253Z,8.18
2023-03-12T15:34:02.138Z,10.73
2023-03-12T15:36:08.921Z,6.60
2023-03-12T15:38:16.934Z,6.68
2023-03-12T15:40:24.015Z,9.43
2023-03-12T15:42:27.921Z,12.52
2023-03-12T15:44:37.490Z,5.55
2023-03-12T15:46:40.255Z,6.60
2023-03-12T15:48:50.265Z,8.57
2023-03-12T15:50:52.877Z,7.95
2023-03-12T15:53:05.909Z,7.18
2023-03-12T15:55:27.001Z,7.90
2023-03-12T15:57:30.366Z,8.55
2023-03-12T15:59:32.986Z,6.13
2023-03-12T16:01:46.482Z,10.10
2023-03-12T16:03:49.025Z,3.53
2023-03-12T16:05:52.320Z,6.78
2023-03-12T16:07:55.078Z,9.77
2023-03-12T16:09:57.736Z,7.78
2023-03-12T16:12:01.647Z,9.13
2023-03-12T16:14:07.464Z,13.55
2023-03-12T16:16:12.857Z,13.95
2023-03-12T16:18:17.240Z,7.75
2023-03-12T16:20:20.162Z,11.20
2023-03-12T16:22:22.770Z,8.63
2023-03-12T16:24:25.316Z,6.75
2023-03-12T16:26:27.839Z,9.02
2023-03-12T16:28:32.130Z,5.97
2023-03-12T16:30:36.722Z,7.75
2023-03-12T16:32:39.335Z,9.90
2023-03-12T16:34:42.383Z,8.30
2023-03-12T16:36:44.932Z,6.45
2023-03-12T16:38:47.881Z,10.50
2023-03-12T16:40:52.769Z,7.75
2023-03-12T16:42:55.845Z,7.53
2023-03-12T16:44:59.948Z,9.85
2023-03-12T16:47:02.616Z,9.02
2023-03-12T16:49:05.296Z,6.45
2023-03-12T16:51:15.000Z,6.32
2023-03-12T16:53:17.865Z,6.78
2023-03-12T16:55:21.215Z,9.85
2023-03-12T16:57:28.590Z,9.38
2023-03-12T16:59:33.195Z,9.35
2023-03-12T17:01:37.628Z,10.43
2023-03-12T17:03:43.502Z,9.10
2023-03-12T17:05:49.086Z,9.10
2023-03-12T17:07:51.778Z,11.07
2023-03-12T17:09:54.300Z,12.18
2023-03-12T17:11:56.906Z,10.55
2023-03-12T17:14:02.997Z,9.13
2023-03-12T17:16:05.976Z,13.80
2023-03-12T17:18:12.475Z,9.52
2023-03-12T17:20:17.846Z,11.98
2023-03-12T17:22:23.084Z,7.25
2023-03-12T17:24:27.973Z,8.35
2023-03-12T17:26:30.560Z,9.20
2023-03-12T17:28:33.361Z,13.73
2023-03-12T17:30:36.766Z,11.60
2023-03-12T17:32:39.949Z,13.52
2023-03-12T17:34:43.904Z,11.75
2023-03-12T17:36:46.435Z,13.75
2023-03-12T17:38:50.837Z,9.75
2023-03-12T17:40:54.451Z,11.73
2023-03-12T17:42:57.813Z,7.68
2023-03-12T17:45:00.347Z,8.07
2023-03-12T17:47:03.171Z,10.60
2023-03-12T17:49:05.940Z,10.15
2023-03-12T17:51:11.814Z,11.25
2023-03-12T17:53:16.083Z,11.68
2023-03-12T17:55:18.680Z,12.65
2023-03-12T17:57:21.250Z,10.52
2023-03-12T17:59:23.973Z,11.60
2023-03-12T18:01:26.559Z,9.93
2023-03-12T18:03:29.253Z,15.52
2023-03-12T18:05:31.825Z,16.17
2023-03-12T18:07:35.816Z,12.35
2023-03-12T18:09:38.802Z,11.23
2023-03-12T18:11:41.349Z,11.07
2023-03-12T18:13:43.891Z,15.48
2023-03-12T18:15:52.881Z,13.55
2023-03-12T18:17:56.776Z,13.25
2023-03-12T18:19:59.316Z,11.85
2023-03-12T18:22:01.871Z,13.77
2023-03-12T18:24:14.186Z,15.63
2023-03-12T18:26:19.249Z,9.75
2023-03-12T18:28:22.560Z,11.70
2023-03-12T18:30:25.079Z,12.10
2023-03-12T18:32:27.651Z,17.08
2023-03-12T18:34:30.258Z,17.92
2023-03-12T18:36:32.832Z,14.63
2023-03-12T18:38:35.590Z,18.30
2023-03-12T18:40:39.658Z,17.80
2023-03-12T18:42:44.212Z,16.83
2023-03-12T18:44:46.811Z,14.88
2023-03-12T18:46:50.802Z,13.68
2023-03-12T18:48:53.713Z,13.65
2023-03-12T18:50:56.271Z,15.50
2023-03-12T18:52:58.926Z,15.25
2023-03-12T18:55:01.553Z,19.27
2023-03-12T18:57:05.925Z,14.95
2023-03-12T18:59:09.663Z,14.95
2023-03-12T19:01:13.849Z,15.80
2023-03-12T19:03:16.428Z,13.75
2023-03-12T19:05:19.249Z,16.95
2023-03-12T19:07:21.800Z,13.00
2023-03-12T19:09:24.320Z,15.52
2023-03-12T19:11:27.588Z,13.90
2023-03-12T19:13:31.454Z,18.40
2023-03-12T19:15:34.015Z,17.98
2023-03-12T19:17:36.598Z,15.18
2023-03-12T19:19:39.756Z,20.40
2023-03-12T19:21:44.419Z,17.10
2023-03-12T19:23:46.992Z,23.13
2023-03-12T19:25:49.681Z,17.70
2023-03-12T19:27:52.275Z,14.57
2023-03-12T19:29:56.154Z,16.50
2023-03-12T19:31:58.772Z,14.63
2023-03-12T19:34:01.357Z,19.55
2023-03-12T19:36:04.516Z,20.60
2023-03-12T19:38:07.166Z,17.05
2023-03-12T19:40:10.979Z,18.17
2023-03-12T19:42:13.736Z,16.40
2023-03-12T19:44:16.353Z,18.27
2023-03-12T19:46:20.395Z,19.17
2023-03-12T19:48:25.115Z,23.70
2023-03-12T19:50:27.734Z,23.55
2023-03-12T19:52:30.532Z,23.65
2023-03-12T19:54:33.732Z,21.30
2023-03-12T19:56:36.313Z,22.85
2023-03-12T19:58:38.887Z,23.15
2023-03-12T20:00:42.160Z,17.50
2023-03-12T20:02:46.570Z,14.45
2023-03-12T20:04:49.291Z,15.18
2023-03-12T20:06:51.884Z,16.13
2023-03-12T20:08:54.469Z,19.08
2023-03-12T20:11:02.847Z,15.23
2023-03-12T20:13:05.611Z,11.25
2023-03-12T20:15:09.351Z,15.45
2023-03-12T20:17:12.202Z,15.43
2023-03-12T20:19:16.148Z,11.60
2023-03-12T20:21:18.688Z,15.05
2023-03-12T20:23:21.230Z,13.40
2023-03-12T20:25:23.841Z,16.92
2023-03-12T20:27:26.862Z,13.82
2023-03-12T20:29:29.403Z,19.15
2023-03-12T20:31:32.322Z,16.10
2023-03-12T20:33:34.939Z,15.18
2023-03-12T20:35:39.523Z,14.85
2023-03-12T20:37:42.700Z,14.70
2023-03-12T20:39:45.251Z,18.33
2023-03-12T20:41:49.557Z,19.30
2023-03-12T20:43:56.331Z,18.83
2023-03-12T20:45:58.917Z,14.07
2023-03-12T20:48:02.003Z,14.73
2023-03-12T20:50:04.971Z,15.23
2023-03-12T20:52:08.887Z,18.58
2023-03-12T20:54:11.859Z,18.23
2023-03-12T20:56:14.429Z,22.35
2023-03-12T20:58:16.954Z,14.45
2023-03-12T21:00:21.486Z,14.20
2023-03-12T21:02:25.081Z,18.52
2023-03-12T21:04:27.663Z,14.30
2023-03-12T21:06:30.273Z,16.17
2023-03-12T21:08:34.771Z,12.35
2023-03-12T21:10:38.536Z,21.58
2023-03-12T21:12:41.329Z,15.10
2023-03-12T21:14:43.997Z,16.35
2023-03-12T21:16:46.600Z,24.48
2023-03-12T21:18:49.189Z,18.50
2023-03-12T21:20:52.287Z,13.93
2023-03-12T21:22:54.820Z,21.15
2023-03-12T21:24:58.988Z,13.05
2023-03-12T21:27:01.695Z,16.05
2023-03-12T21:29:04.573Z,23.02
2023-03-12T21:31:08.404Z,19.73
2023-03-12T21:33:11.060Z,18.58
2023-03-12T21:35:13.676Z,17.60
2023-03-12T21:37:16.471Z,13.25
2023-03-12T21:39:19.229Z,14.35
2023-03-12T21:41:23.680Z,22.60
2023-03-12T21:43:30.132Z,23.77
2023-03-12T21:45:32.884Z,20.38
2023-03-12T21:47:37.051Z,13.55
2023-03-12T21:49:39.598Z,19.02
2023-03-12T21:51:42.121Z,24.70
2023-03-12T21:53:44.790Z,19.15
2023-03-12T21:55:55.580Z,16.98
2023-03-12T21:57:59.454Z,23.50
2023-03-12T22:00:02.272Z,14.10
2023-03-12T22:02:04.994Z,15.82
2023-03-12T22:04:07.610Z,15.40
2023-03-12T22:06:11.560Z,14.35
2023-03-12T22:08:14.092Z,18.73
2023-03-12T22:10:17.371Z,19.60
2023-03-12T22:12:19.912Z,15.70
2023-03-12T22:14:25.150Z,16.40
2023-03-12T22:16:27.918Z,19.08
2023-03-12T22:18:30.613Z,17.88
2023-03-12T22:20:34.645Z,12.38
2023-03-12T22:22:37.192Z,18.52
2023-03-12T22:24:39.741Z,16.67
2023-03-12T22:26:44.488Z,20.98
2023-03-12T22:28:50.631Z,16.08
2023-03-12T22:30:59.600Z,16.92
2023-03-12T22:33:02.298Z,16.05
2023-03-12T22:35:05.271Z,15.60
2023-03-12T22:37:08.126Z,18.58
2023-03-12T22:39:10.673Z,18.13
2023-03-12T22:41:15.467Z,19.55
2023-03-12T22:43:18.010Z,17.52
2023-03-12T22:45:20.889Z,20.10
2023-03-12T22:47:25.213Z,21.00
2023-03-12T22:49:29.342Z,16.15
2023-03-12T22:51:33.415Z,24.10
2023-03-12T22:53:36.573Z,18.25
2023-03-12T22:55:39.160Z,21.65
2023-03-12T22:57:41.790Z,19.60
2023-03-12T22:59:44.314Z,17.50
2023-03-12T23:01:46.904Z,22.35
2023-03-12T23:03:51.419Z,14.95
2023-03-12T23:05:53.952Z,12.38
2023-03-12T23:07:56.592Z,12.63
2023-03-12T23:09:59.266Z,17.08
2023-03-12T23:12:01.862Z,17.10
2023-03-12T23:14:04.413Z,10.52
2023-03-12T23:16:09.903Z,13.20
2023-03-12T23:18:12.514Z,15.02
2023-03-12T23:20:16.891Z,12.32
2023-03-12T23:22:19.471Z,16.75
2023-03-12T23:24:22.113Z,12.90
2023-03-12T23:26:27.315Z,16.58
2023-03-12T23:28:31.284Z,8.93
2023-03-12T23:30:34.735Z,16.33
2023-03-12T23:32:37.314Z,12.85
2023-03-12T23:34:39.875Z,7.07
2023-03-12T23:36:44.426Z,16.77
2023-03-12T23:38:48.457Z,11.90
2023-03-12T23:40:51.053Z,15.65
2023-03-12T23:42:53.593Z,12.25
2023-03-12T23:44:56.245Z,11.43
2023-03-12T23:46:58.774Z,10.35
2023-03-12T23:49:02.627Z,13.40
2023-03-12T23:51:09.239Z,11.85
2023-03-12T23:53:13.133Z,15.63
2023-03-12T23:55:17.377Z,12.50
2023-03-12T23:57:19.944Z,16.65
2023-03-12T23:59:22.692Z,10.20
